createdAt,value
2019-02-19T00:00:20.734Z,100631.05
2019-02-19T00:01:54.539Z,100628.15
2019-02-19T00:03:28.229Z,100626.61
2019-02-19T00:05:02.061Z,100629.61
2019-02-19T00:06:35.107Z,100629.53
2019-02-19T00:08:08.055Z,100626.92
2019-02-19T00:09:40.783Z,100620.48
2019-02-19T00:11:13.741Z,100620.72
2019-02-19T00:12:48.469Z,100618.62
2019-02-19T00:14:22.286Z,100609.28
2019-02-19T00:15:55.962Z,100610.94
2019-02-19T00:17:28.966Z,100609.10
2019-02-19T00:19:02.979Z,100604.02
2019-02-19T00:20:35.788Z,100605.15
2019-02-19T00:22:09.607Z,100594.14
2019-02-19T00:23:43.484Z,100603.28
2019-02-19T00:25:17.321Z,100600.58
2019-02-19T00:26:51.254Z,100605.98
2019-02-19T00:28:24.974Z,100602.64
2019-02-19T00:29:58.943Z,100606.59
2019-02-19T00:31:32.474Z,100595.80
2019-02-19T00:33:06.165Z,100603.28
2019-02-19T00:34:39.124Z,100593.02
2019-02-19T00:36:11.986Z,100596.75
2019-02-19T00:37:45.902Z,100601.11
2019-02-19T00:39:18.934Z,100594.45
2019-02-19T00:40:52.661Z,100591.96
2019-02-19T00:42:26.632Z,100590.70
2019-02-19T00:44:00.996Z,100590.83
2019-02-19T00:45:33.923Z,100576.81
2019-02-19T00:47:06.810Z,100577.86
2019-02-19T00:48:40.638Z,100567.55
2019-02-19T00:50:14.758Z,100559.58
2019-02-19T00:51:47.756Z,100552.83
2019-02-19T00:53:21.647Z,100545.56
2019-02-19T00:54:54.535Z,100545.14
2019-02-19T00:56:27.420Z,100543.78
2019-02-19T00:58:00.800Z,100536.03
2019-02-19T00:59:34.579Z,100534.34
2019-02-19T01:01:08.494Z,100535.38
2019-02-19T01:02:42.688Z,100526.67
2019-02-19T01:04:16.408Z,100522.53
2019-02-19T01:05:50.210Z,100523.76
2019-02-19T01:07:23.926Z,100523.76
2019-02-19T01:08:56.977Z,100497.20
2019-02-19T01:10:30.023Z,100511.53
2019-02-19T01:12:03.879Z,100504.78
2019-02-19T01:13:37.846Z,100503.22
2019-02-19T01:15:11.872Z,100502.17
2019-02-19T01:16:44.855Z,100490.45
2019-02-19T01:18:18.749Z,100484.02
2019-02-19T01:19:52.488Z,100478.62
2019-02-19T01:21:25.368Z,100479.02
2019-02-19T01:22:58.196Z,100482.28
2019-02-19T01:24:31.183Z,100473.84
2019-02-19T01:26:04.995Z,100467.44
2019-02-19T01:27:37.650Z,100470.14
2019-02-19T01:29:10.493Z,100467.31
2019-02-19T01:30:44.258Z,100466.79
2019-02-19T01:32:18.026Z,100467.84
2019-02-19T01:33:51.126Z,100461.17
2019-02-19T01:35:24.136Z,100454.55
2019-02-19T01:36:57.200Z,100458.17
2019-02-19T01:38:31.004Z,100448.12
2019-02-19T01:40:04.050Z,100440.55
2019-02-19T01:41:37.170Z,100437.42
2019-02-19T01:43:09.903Z,100434.42
2019-02-19T01:44:43.714Z,100434.85
2019-02-19T01:46:17.503Z,100419.50
2019-02-19T01:47:51.706Z,100423.37
2019-02-19T01:49:25.921Z,100416.73
2019-02-19T01:50:59.020Z,100417.25
2019-02-19T01:52:32.775Z,100414.46
2019-02-19T01:54:06.929Z,100417.98
2019-02-19T01:55:41.023Z,100413.95
2019-02-19T01:57:14.991Z,100411.38
2019-02-19T01:58:49.252Z,100408.34
2019-02-19T02:00:23.409Z,100402.03
2019-02-19T02:01:57.620Z,100397.07
2019-02-19T02:03:30.444Z,100398.11
2019-02-19T02:05:04.337Z,100395.59
2019-02-19T02:06:37.466Z,100389.08
2019-02-19T02:08:11.562Z,100384.42
2019-02-19T02:09:45.741Z,100387.33
2019-02-19T02:11:20.011Z,100391.89
2019-02-19T02:12:53.894Z,100387.85
2019-02-19T02:14:26.544Z,100385.67
2019-02-19T02:16:00.198Z,100380.50
2019-02-19T02:17:33.906Z,100370.03
2019-02-19T02:19:07.737Z,100380.29
2019-02-19T02:20:40.434Z,100371.98
2019-02-19T02:22:14.433Z,100373.33
2019-02-19T02:23:47.162Z,100376.45
2019-02-19T02:25:20.981Z,100368.59
2019-02-19T02:26:53.758Z,100361.20
2019-02-19T02:28:26.733Z,100360.90
2019-02-19T02:30:00.449Z,100351.77
2019-02-19T02:31:34.385Z,100349.72
2019-02-19T02:33:08.077Z,100348.38
2019-02-19T02:34:40.733Z,100342.13
2019-02-19T02:36:14.413Z,100349.08
2019-02-19T02:37:48.367Z,100351.67
2019-02-19T02:39:21.842Z,100337.98
2019-02-19T02:40:55.756Z,100340.89
2019-02-19T02:42:29.542Z,100338.94
2019-02-19T02:44:02.500Z,100331.55
2019-02-19T02:45:36.266Z,100336.12
2019-02-19T02:47:09.350Z,100337.25
2019-02-19T02:48:43.061Z,100339.95
2019-02-19T02:50:17.041Z,100337.59
2019-02-19T02:51:49.785Z,100332.50
2019-02-19T02:53:23.644Z,100329.06
2019-02-19T02:54:57.464Z,100336.32
2019-02-19T02:56:30.264Z,100334.97
2019-02-19T02:58:03.995Z,100331.23
2019-02-19T02:59:37.004Z,100329.98
2019-02-19T03:01:09.769Z,100325.41
2019-02-19T03:02:43.691Z,100315.97
2019-02-19T03:04:16.782Z,100316.06
2019-02-19T03:05:53.814Z,100312.66
2019-02-19T03:07:35.212Z,100306.84
2019-02-19T03:09:09.454Z,100314.71
2019-02-19T03:10:42.400Z,100304.45
2019-02-19T03:12:16.721Z,100305.27
2019-02-19T03:13:50.021Z,100300.63
2019-02-19T03:15:25.177Z,100293.66
2019-02-19T03:16:58.345Z,100292.75
2019-02-19T03:18:32.436Z,100286.45
2019-02-19T03:20:06.522Z,100297.23
2019-02-19T03:21:40.208Z,100281.66
2019-02-19T03:23:12.965Z,100286.62
2019-02-19T03:24:47.317Z,100276.27
2019-02-19T03:26:20.626Z,100268.69
2019-02-19T03:27:54.681Z,100267.34
2019-02-19T03:29:28.521Z,100251.69
2019-02-19T03:31:02.200Z,100255.38
2019-02-19T03:32:35.918Z,100254.11
2019-02-19T03:34:10.675Z,100252.45
2019-02-19T03:35:43.520Z,100261.88
2019-02-19T03:37:17.156Z,100249.73
2019-02-19T03:38:50.856Z,100248.28
2019-02-19T03:40:23.833Z,100248.67
2019-02-19T03:41:56.715Z,100244.10
2019-02-19T03:43:30.557Z,100243.36
2019-02-19T03:45:03.467Z,100240.80
2019-02-19T03:46:37.252Z,100239.95
2019-02-19T03:48:10.061Z,100232.16
2019-02-19T03:49:42.888Z,100234.22
2019-02-19T03:51:16.637Z,100227.28
2019-02-19T03:52:49.426Z,100229.98
2019-02-19T03:54:22.252Z,100229.09
2019-02-19T03:55:55.267Z,100221.83
2019-02-19T03:57:28.164Z,100225.58
2019-02-19T03:59:00.899Z,100228.19
2019-02-19T04:00:34.689Z,100223.92
2019-02-19T04:02:07.467Z,100209.83
2019-02-19T04:03:41.338Z,100205.48
2019-02-19T04:05:15.991Z,100200.69
2019-02-19T04:06:48.844Z,100200.69
2019-02-19T04:08:21.845Z,100202.64
2019-02-19T04:09:55.663Z,100199.34
2019-02-19T04:11:29.522Z,100197.99
2019-02-19T04:13:03.647Z,100192.60
2019-02-19T04:14:36.980Z,100187.28
2019-02-19T04:16:20.789Z,100188.11
2019-02-19T04:17:46.466Z,100183.57
2019-02-19T04:19:20.285Z,100187.50
2019-02-19T04:20:53.219Z,100183.88
2019-02-19T04:22:27.172Z,100189.45
2019-02-19T04:24:00.180Z,100188.74
2019-02-19T04:25:34.274Z,100186.34
2019-02-19T04:27:08.450Z,100175.14
2019-02-19T04:28:42.504Z,100186.13
2019-02-19T04:30:17.404Z,100185.15
2019-02-19T04:31:50.510Z,100180.91
2019-02-19T04:33:24.379Z,100176.04
2019-02-19T04:34:58.322Z,100169.30
2019-02-19T04:36:32.195Z,100168.84
2019-02-19T04:38:06.209Z,100171.25
2019-02-19T04:39:39.263Z,100164.05
2019-02-19T04:41:13.116Z,100163.63
2019-02-19T04:42:45.782Z,100161.31
2019-02-19T04:44:19.362Z,100159.44
2019-02-19T04:45:53.385Z,100155.69
2019-02-19T04:47:26.246Z,100153.52
2019-02-19T04:49:00.146Z,100150.89
2019-02-19T04:50:33.810Z,100154.64
2019-02-19T04:52:07.421Z,100145.95
2019-02-19T04:53:41.216Z,100150.89
2019-02-19T04:55:14.957Z,100152.47
2019-02-19T04:56:48.625Z,100151.94
2019-02-19T04:58:21.589Z,100146.77
2019-02-19T04:59:55.468Z,100149.99
2019-02-19T05:02:34.025Z,100151.05
2019-02-19T05:04:07.754Z,100144.30
2019-02-19T05:05:41.591Z,100150.89
2019-02-19T05:07:15.409Z,100144.89
2019-02-19T05:08:49.385Z,100146.55
2019-02-19T05:10:22.207Z,100149.47
2019-02-19T05:11:56.198Z,100149.02
2019-02-19T05:13:29.720Z,100134.70
2019-02-19T05:15:02.739Z,100137.02
2019-02-19T05:16:40.631Z,100138.20
2019-02-19T05:18:10.301Z,100131.91
2019-02-19T05:19:43.156Z,100134.16
2019-02-19T05:21:17.111Z,100128.05
2019-02-19T05:22:51.044Z,100123.91
2019-02-19T05:24:25.205Z,100127.23
2019-02-19T05:25:58.353Z,100128.17
2019-02-19T05:27:31.233Z,100122.48
2019-02-19T05:29:05.035Z,100121.66
2019-02-19T05:30:39.266Z,100122.11
2019-02-19T05:32:13.543Z,100119.94
2019-02-19T05:33:46.745Z,100125.75
2019-02-19T05:35:20.867Z,100116.31
2019-02-19T05:36:53.842Z,100114.89
2019-02-19T05:38:27.827Z,100117.81
2019-02-19T05:40:01.774Z,100116.23
2019-02-19T05:41:35.014Z,100108.89
2019-02-19T05:43:08.123Z,100109.03
2019-02-19T05:44:41.038Z,100107.31
2019-02-19T05:46:14.086Z,100109.48
2019-02-19T05:47:47.994Z,100107.54
2019-02-19T05:49:21.915Z,100108.89
2019-02-19T05:50:54.733Z,100100.24
2019-02-19T05:52:29.544Z,100104.55
2019-02-19T05:54:02.344Z,100102.79
2019-02-19T05:55:35.237Z,100098.09
2019-02-19T05:57:09.871Z,100090.65
2019-02-19T05:58:43.549Z,100090.35
2019-02-19T06:00:17.216Z,100095.40
2019-02-19T06:01:51.156Z,100098.92
2019-02-19T06:03:24.249Z,100097.99
2019-02-19T06:04:58.281Z,100101.84
2019-02-19T06:06:32.135Z,100101.22
2019-02-19T06:08:05.994Z,100096.27
2019-02-19T06:09:39.017Z,100096.57
2019-02-19T06:11:11.912Z,100093.39
2019-02-19T06:12:44.881Z,100076.69
2019-02-19T06:14:17.646Z,100072.44
2019-02-19T06:15:52.246Z,100066.00
2019-02-19T06:17:27.167Z,100065.55
2019-02-19T06:19:00.093Z,100063.38
2019-02-19T06:20:32.932Z,100067.64
2019-02-19T06:22:06.779Z,100065.17
2019-02-19T06:23:40.677Z,100055.33
2019-02-19T06:25:14.592Z,100061.77
2019-02-19T06:26:48.511Z,100056.30
2019-02-19T06:28:21.402Z,100052.78
2019-02-19T06:29:54.147Z,100046.69
2019-02-19T06:31:27.039Z,100046.02
2019-02-19T06:33:00.733Z,100045.56
2019-02-19T06:34:34.546Z,100045.72
2019-02-19T06:36:08.768Z,100037.30
2019-02-19T06:37:42.789Z,100030.78
2019-02-19T06:39:16.613Z,100029.95
2019-02-19T06:40:51.702Z,100030.25
2019-02-19T06:42:25.960Z,100031.70
2019-02-19T06:43:59.887Z,100026.84
2019-02-19T06:45:32.938Z,100026.84
2019-02-19T06:47:07.277Z,100018.22
2019-02-19T06:48:41.154Z,100031.18
2019-02-19T06:50:14.263Z,100025.38
2019-02-19T06:51:47.014Z,100041.86
2019-02-19T06:53:20.937Z,100044.97
2019-02-19T06:54:54.039Z,100038.82
2019-02-19T06:56:28.503Z,100047.91
2019-02-19T06:58:02.431Z,100032.63
2019-02-19T06:59:36.320Z,100039.69
2019-02-19T07:01:09.177Z,100036.69
2019-02-19T07:02:47.260Z,100041.44
2019-02-19T07:04:24.908Z,100041.34
2019-02-19T07:05:58.553Z,100043.09
2019-02-19T07:07:32.298Z,100038.36
2019-02-19T07:09:05.374Z,100037.41
2019-02-19T07:10:39.067Z,100039.19
2019-02-19T07:12:11.839Z,100040.98
2019-02-19T07:13:44.540Z,100036.34
2019-02-19T07:15:18.364Z,100030.72
2019-02-19T07:16:52.222Z,100037.29
2019-02-19T07:18:26.244Z,100030.72
2019-02-19T07:19:59.089Z,100031.31
2019-02-19T07:21:32.857Z,100030.37
2019-02-19T07:23:05.783Z,100015.23
2019-02-19T07:24:39.672Z,100018.03
2019-02-19T07:26:12.517Z,100016.45
2019-02-19T07:27:45.655Z,100013.77
2019-02-19T07:29:18.521Z,100013.01
2019-02-19T07:30:52.129Z,99997.14
2019-02-19T07:32:25.688Z,100004.31
2019-02-19T07:33:59.513Z,100000.73
2019-02-19T07:35:32.382Z,100000.73
2019-02-19T07:37:05.260Z,99997.04
2019-02-19T07:38:39.295Z,99995.78
2019-02-19T07:40:13.026Z,99990.81
2019-02-19T07:41:46.684Z,99992.45
2019-02-19T07:43:19.751Z,99988.73
2019-02-19T07:44:52.942Z,99985.28
2019-02-19T07:46:26.794Z,99977.18
2019-02-19T07:48:00.662Z,99974.70
2019-02-19T07:49:33.477Z,99976.95
2019-02-19T07:51:07.522Z,99971.31
2019-02-19T07:52:40.800Z,99949.48
2019-02-19T07:54:14.522Z,99961.10
2019-02-19T07:55:48.706Z,99961.50
2019-02-19T07:57:21.790Z,99956.98
2019-02-19T07:58:55.613Z,99949.88
2019-02-19T08:00:28.701Z,99952.86
2019-02-19T08:02:01.662Z,99949.98
2019-02-19T08:03:35.683Z,99949.31
2019-02-19T08:05:09.535Z,99944.42
2019-02-19T08:06:42.544Z,99944.34
2019-02-19T08:08:16.550Z,99930.30
2019-02-19T08:09:49.560Z,99942.45
2019-02-19T08:11:22.639Z,99946.80
2019-02-19T08:12:56.679Z,99941.88
2019-02-19T08:14:30.622Z,99936.58
2019-02-19T08:16:04.350Z,99942.16
2019-02-19T08:17:37.207Z,99945.60
2019-02-19T08:19:10.927Z,99935.98
2019-02-19T08:20:44.677Z,99939.56
2019-02-19T08:22:18.535Z,99938.56
2019-02-19T08:23:52.369Z,99932.75
2019-02-19T08:25:26.315Z,99936.33
2019-02-19T08:26:59.591Z,99933.16
2019-02-19T08:28:33.426Z,99936.47
2019-02-19T08:30:06.186Z,99932.23
2019-02-19T08:31:39.070Z,99924.36
2019-02-19T08:33:12.751Z,99926.63
2019-02-19T08:34:46.698Z,99923.33
2019-02-19T08:36:20.522Z,99928.59
2019-02-19T08:37:54.576Z,99918.66
2019-02-19T08:39:29.380Z,99912.96
2019-02-19T08:41:02.379Z,99919.28
2019-02-19T08:42:35.306Z,99911.99
2019-02-19T08:44:09.145Z,99911.84
2019-02-19T08:45:43.139Z,99902.20
2019-02-19T08:47:17.002Z,99894.48
2019-02-19T08:48:50.883Z,99883.77
2019-02-19T08:50:24.543Z,99885.89
2019-02-19T08:51:58.267Z,99890.03
2019-02-19T08:53:31.994Z,99878.08
2019-02-19T08:55:05.038Z,99874.40
2019-02-19T08:56:38.750Z,99864.52
2019-02-19T08:58:12.577Z,99860.70
2019-02-19T08:59:45.941Z,99850.41
2019-02-19T09:01:19.010Z,99853.25
2019-02-19T09:02:52.946Z,99858.23
2019-02-19T09:04:27.051Z,99849.97
2019-02-19T09:06:00.417Z,99860.98
2019-02-19T09:07:34.448Z,99853.59
2019-02-19T09:09:08.401Z,99857.11
2019-02-19T09:10:41.607Z,99849.01
2019-02-19T09:12:14.646Z,99851.73
2019-02-19T09:13:47.415Z,99843.80
2019-02-19T09:15:22.464Z,99846.88
2019-02-19T09:16:55.543Z,99847.08
2019-02-19T09:18:29.586Z,99842.30
2019-02-19T09:20:03.347Z,99843.00
2019-02-19T09:21:37.375Z,99840.47
2019-02-19T09:23:11.472Z,99855.47
2019-02-19T09:24:45.492Z,99845.47
2019-02-19T09:26:19.170Z,99842.11
2019-02-19T09:27:52.989Z,99841.48
2019-02-19T09:29:26.905Z,99838.55
2019-02-19T09:31:00.899Z,99839.13
2019-02-19T09:32:35.625Z,99836.91
2019-02-19T09:34:08.783Z,99848.78
2019-02-19T09:35:41.804Z,99833.72
2019-02-19T09:37:15.675Z,99832.16
2019-02-19T09:38:49.296Z,99828.60
2019-02-19T09:40:24.134Z,99842.45
2019-02-19T09:41:58.219Z,99834.55
2019-02-19T09:43:35.422Z,99834.48
2019-02-19T09:45:06.191Z,99833.90
2019-02-19T09:46:40.057Z,99828.37
2019-02-19T09:48:13.742Z,99843.44
2019-02-19T09:49:47.550Z,99837.55
2019-02-19T09:51:21.126Z,99832.66
2019-02-19T09:52:59.718Z,99825.50
2019-02-19T09:54:28.009Z,99818.86
2019-02-19T09:56:01.883Z,99816.36
2019-02-19T09:57:34.691Z,99816.71
2019-02-19T09:59:07.765Z,99820.31
2019-02-19T10:00:41.462Z,99822.00
2019-02-19T10:02:15.417Z,99822.14
2019-02-19T10:03:48.529Z,99822.04
2019-02-19T10:05:23.354Z,99825.47
2019-02-19T10:06:56.328Z,99822.52
2019-02-19T10:08:30.395Z,99823.94
2019-02-19T10:10:04.467Z,99814.34
2019-02-19T10:11:37.697Z,99821.91
2019-02-19T10:13:11.440Z,99826.60
2019-02-19T10:14:45.142Z,99815.75
2019-02-19T10:16:18.891Z,99810.78
2019-02-19T10:17:52.961Z,99817.53
2019-02-19T10:19:26.970Z,99812.13
2019-02-19T10:21:01.095Z,99815.20
2019-02-19T10:22:34.900Z,99812.19
2019-02-19T10:24:08.956Z,99811.90
2019-02-19T10:25:42.178Z,99814.31
2019-02-19T10:27:15.361Z,99805.34
2019-02-19T10:28:49.039Z,99802.91
2019-02-19T10:30:24.243Z,99805.86
2019-02-19T10:31:57.222Z,99797.17
2019-02-19T10:33:30.349Z,99792.00
2019-02-19T10:35:03.246Z,99801.08
2019-02-19T10:36:38.528Z,99785.33
2019-02-19T10:38:09.509Z,99800.61
2019-02-19T10:39:43.336Z,99791.03
2019-02-19T10:41:16.984Z,99789.10
2019-02-19T10:42:49.920Z,99785.73
2019-02-19T10:44:22.692Z,99776.19
2019-02-19T10:45:55.710Z,99779.34
2019-02-19T10:47:29.528Z,99778.98
2019-02-19T10:49:03.289Z,99778.56
2019-02-19T10:50:37.020Z,99773.16
2019-02-19T10:52:09.906Z,99773.80
2019-02-19T10:53:44.681Z,99769.28
2019-02-19T10:55:18.609Z,99773.76
2019-02-19T10:56:52.529Z,99766.35
2019-02-19T10:58:25.487Z,99766.85
2019-02-19T10:59:59.386Z,99761.92
2019-02-19T11:01:33.934Z,99765.97
2019-02-19T11:03:06.170Z,99758.99
2019-02-19T11:04:40.058Z,99759.93
2019-02-19T11:06:14.854Z,99750.41
2019-02-19T11:07:49.701Z,99751.84
2019-02-19T11:09:23.377Z,99743.78
2019-02-19T11:10:57.293Z,99745.96
2019-02-19T11:12:31.139Z,99746.38
2019-02-19T11:14:04.913Z,99739.94
2019-02-19T11:15:38.723Z,99749.30
2019-02-19T11:17:11.627Z,99737.30
2019-02-19T11:18:45.343Z,99734.61
2019-02-19T11:20:19.198Z,99729.31
2019-02-19T11:21:54.143Z,99724.12
2019-02-19T11:23:28.189Z,99725.64
2019-02-19T11:25:02.441Z,99723.25
2019-02-19T11:26:36.484Z,99725.13
2019-02-19T11:28:10.534Z,99721.73
2019-02-19T11:29:44.491Z,99716.11
2019-02-19T11:31:17.554Z,99711.13
2019-02-19T11:32:51.546Z,99719.65
2019-02-19T11:34:24.990Z,99709.89
2019-02-19T11:35:58.035Z,99702.73
2019-02-19T11:37:31.896Z,99703.94
2019-02-19T11:39:04.901Z,99696.00
2019-02-19T11:40:38.718Z,99694.86
2019-02-19T11:42:11.914Z,99691.48
2019-02-19T11:43:44.869Z,99681.86
2019-02-19T11:45:18.014Z,99671.98
2019-02-19T11:46:52.139Z,99666.77
2019-02-19T11:48:25.165Z,99666.87
2019-02-19T11:49:58.997Z,99660.82
2019-02-19T11:51:31.939Z,99663.47
2019-02-19T11:53:05.698Z,99652.92
2019-02-19T11:54:39.498Z,99656.73
2019-02-19T11:56:13.255Z,99653.23
2019-02-19T11:57:47.004Z,99657.98
2019-02-19T11:59:20.781Z,99660.47
2019-02-19T12:00:54.726Z,99650.17
2019-02-19T12:02:32.780Z,99654.14
2019-02-19T12:04:01.458Z,99651.88
2019-02-19T12:05:34.383Z,99632.45
2019-02-19T12:07:07.249Z,99633.95
2019-02-19T12:08:40.769Z,99633.02
2019-02-19T12:10:14.762Z,99633.67
2019-02-19T12:11:48.676Z,99631.94
2019-02-19T12:13:22.505Z,99634.92
2019-02-19T12:14:57.406Z,99629.80
2019-02-19T12:16:31.313Z,99632.78
2019-02-19T12:18:04.021Z,99628.83
2019-02-19T12:19:36.895Z,99624.20
2019-02-19T12:21:10.708Z,99619.48
2019-02-19T12:22:42.824Z,99617.09
2019-02-19T12:24:16.662Z,99617.97
2019-02-19T12:25:49.501Z,99617.22
2019-02-19T12:27:23.519Z,99610.95
2019-02-19T12:28:56.494Z,99613.96
2019-02-19T12:30:31.188Z,99611.13
2019-02-19T12:32:04.880Z,99599.73
2019-02-19T12:33:38.906Z,99603.06
2019-02-19T12:35:12.249Z,99599.77
2019-02-19T12:36:45.486Z,99599.77
2019-02-19T12:38:18.631Z,99602.25
2019-02-19T12:39:51.762Z,99607.56
2019-02-19T12:41:25.475Z,99602.47
2019-02-19T12:42:58.762Z,99608.63
2019-02-19T12:44:32.868Z,99606.63
2019-02-19T12:46:07.206Z,99601.47
2019-02-19T12:47:40.347Z,99606.45
2019-02-19T12:49:14.217Z,99606.47
2019-02-19T12:50:48.265Z,99592.98
2019-02-19T12:52:21.960Z,99594.01
2019-02-19T12:53:55.121Z,99585.44
2019-02-19T12:55:30.173Z,99586.92
2019-02-19T12:57:04.227Z,99585.89
2019-02-19T12:58:37.273Z,99591.56
2019-02-19T13:00:10.319Z,99588.53
2019-02-19T13:01:44.153Z,99589.78
2019-02-19T13:03:17.860Z,99574.72
2019-02-19T13:04:50.861Z,99579.64
2019-02-19T13:06:24.714Z,99584.77
2019-02-19T13:07:58.525Z,99579.64
2019-02-19T13:09:32.341Z,99574.62
2019-02-19T13:11:06.094Z,99573.16
2019-02-19T13:12:39.885Z,99570.81
2019-02-19T13:14:14.001Z,99566.46
2019-02-19T13:15:48.124Z,99560.72
2019-02-19T13:17:22.710Z,99564.66
2019-02-19T13:19:03.235Z,99563.02
2019-02-19T13:20:30.906Z,99567.30
2019-02-19T13:22:04.705Z,99576.28
2019-02-19T13:23:38.555Z,99571.27
2019-02-19T13:25:12.142Z,99578.02
2019-02-19T13:26:46.046Z,99578.80
2019-02-19T13:28:19.780Z,99576.95
2019-02-19T13:29:53.726Z,99578.75
2019-02-19T13:31:26.694Z,99576.72
2019-02-19T13:32:59.391Z,99581.48
2019-02-19T13:34:33.291Z,99582.27
2019-02-19T13:36:07.026Z,99580.60
2019-02-19T13:37:41.007Z,99581.55
2019-02-19T13:39:14.919Z,99572.96
2019-02-19T13:40:48.050Z,99579.13
2019-02-19T13:42:20.869Z,99575.66
2019-02-19T13:43:54.666Z,99569.59
2019-02-19T13:45:29.863Z,99566.13
2019-02-19T13:47:04.205Z,99561.06
2019-02-19T13:48:38.542Z,99557.32
2019-02-19T13:50:12.446Z,99551.44
2019-02-19T13:51:45.319Z,99560.63
2019-02-19T13:53:28.404Z,99544.61
2019-02-19T13:55:06.434Z,99554.02
2019-02-19T13:56:40.925Z,99551.40
2019-02-19T13:58:15.019Z,99546.67
2019-02-19T13:59:48.727Z,99551.11
2019-02-19T14:01:22.674Z,99556.64
2019-02-19T14:02:55.968Z,99557.46
2019-02-19T14:04:30.178Z,99556.79
2019-02-19T14:06:03.946Z,99554.33
2019-02-19T14:07:37.956Z,99550.78
2019-02-19T14:09:11.934Z,99547.58
2019-02-19T14:10:45.965Z,99533.48
2019-02-19T14:12:18.741Z,99536.55
2019-02-19T14:13:56.622Z,99535.13
2019-02-19T14:15:39.392Z,99531.75
2019-02-19T14:17:15.349Z,99535.97
2019-02-19T14:18:59.236Z,99529.53
2019-02-19T14:20:45.226Z,99533.30
2019-02-19T14:22:23.971Z,99532.48
2019-02-19T14:24:06.732Z,99537.63
2019-02-19T14:25:45.581Z,99531.41
2019-02-19T14:27:25.477Z,99529.24
2019-02-19T14:29:05.232Z,99524.12
2019-02-19T14:32:50.954Z,99520.73
2019-02-19T14:34:29.663Z,99523.16
2019-02-19T14:36:42.952Z,99521.23
2019-02-19T14:38:22.990Z,99531.88
2019-02-19T14:40:58.877Z,99530.66
2019-02-19T14:42:41.556Z,99530.78
2019-02-19T14:44:20.373Z,99529.14
2019-02-19T14:47:01.140Z,99527.79
2019-02-19T14:48:43.303Z,99526.72
2019-02-19T14:50:24.204Z,99536.95
2019-02-19T14:53:00.880Z,99536.27
2019-02-19T14:54:38.836Z,99529.69
2019-02-19T14:56:17.745Z,99530.45
2019-02-19T14:57:56.544Z,99528.70
2019-02-19T15:00:33.005Z,99526.00
2019-02-19T15:02:12.338Z,99530.25
2019-02-19T15:05:53.950Z,99526.00
2019-02-19T15:08:29.629Z,99526.38
2019-02-19T15:12:16.426Z,99523.87
2019-02-19T15:13:56.685Z,99514.99
2019-02-19T15:15:36.899Z,99510.08
2019-02-19T15:17:16.054Z,99511.43
2019-02-19T15:19:25.973Z,99499.73
2019-02-19T15:21:06.922Z,99503.86
2019-02-19T15:24:49.470Z,99502.34
2019-02-19T15:26:39.243Z,99492.37
2019-02-19T15:28:18.061Z,99495.31
2019-02-19T15:29:56.922Z,99495.44
2019-02-19T15:31:36.647Z,99495.72
2019-02-19T15:33:16.453Z,99503.05
2019-02-19T15:34:54.995Z,99493.34
2019-02-19T15:37:00.045Z,99503.86
2019-02-19T15:40:41.678Z,99511.34
2019-02-19T15:42:22.317Z,99511.50
2019-02-19T15:44:03.121Z,99519.31
2019-02-19T15:47:48.660Z,99516.62
2019-02-19T15:49:47.665Z,99510.20
2019-02-19T15:51:21.982Z,99513.80
2019-02-19T15:54:05.971Z,99520.83
2019-02-19T15:55:47.616Z,99516.38
2019-02-19T15:57:29.580Z,99516.44
2019-02-19T15:59:07.364Z,99518.56
2019-02-19T16:00:47.107Z,99515.09
2019-02-19T16:03:25.710Z,99511.41
2019-02-19T16:05:07.931Z,99513.63
2019-02-19T16:06:45.810Z,99509.98
2019-02-19T16:08:26.983Z,99518.98
2019-02-19T16:10:04.978Z,99511.52
2019-02-19T16:11:43.985Z,99505.63
2019-02-19T16:13:37.537Z,99504.77
2019-02-19T16:15:16.685Z,99515.66
2019-02-19T16:17:09.010Z,99504.39
2019-02-19T16:19:01.092Z,99508.44
2019-02-19T16:20:39.925Z,99514.61
2019-02-19T16:22:19.000Z,99514.61
2019-02-19T16:25:00.599Z,99515.13
2019-02-19T16:28:44.648Z,99510.51
2019-02-19T16:31:20.378Z,99506.73
2019-02-19T16:33:29.913Z,99506.57
2019-02-19T16:35:08.854Z,99500.59
2019-02-19T16:36:47.545Z,99500.70
2019-02-19T16:38:34.485Z,99501.47
2019-02-19T16:40:14.575Z,99499.48
2019-02-19T16:41:54.067Z,99503.64
2019-02-19T16:43:37.963Z,99503.39
2019-02-19T16:45:19.216Z,99496.94
2019-02-19T16:47:03.977Z,99509.16
2019-02-19T16:48:42.705Z,99508.92
2019-02-19T16:50:21.398Z,99508.63
2019-02-19T16:52:00.163Z,99507.28
2019-02-19T16:53:42.981Z,99511.86
2019-02-19T16:55:22.401Z,99511.39
2019-02-19T16:57:00.346Z,99516.44
2019-02-19T16:58:41.921Z,99512.78
2019-02-19T17:00:23.912Z,99514.72
2019-02-19T17:03:05.363Z,99516.44
2019-02-19T17:04:46.438Z,99515.09
2019-02-19T17:07:28.010Z,99511.97
2019-02-19T17:09:09.137Z,99514.42
2019-02-19T17:11:45.764Z,99508.31
2019-02-19T17:13:58.333Z,99514.53
2019-02-19T17:17:36.544Z,99515.72
2019-02-19T17:19:19.767Z,99522.52
2019-02-19T17:20:59.871Z,99517.23
2019-02-19T17:22:38.661Z,99519.88
2019-02-19T17:24:15.877Z,99518.66
2019-02-19T17:26:53.817Z,99518.23
2019-02-19T17:28:36.884Z,99518.52
2019-02-19T17:30:16.890Z,99520.40
2019-02-19T17:31:55.954Z,99513.90
2019-02-19T17:34:34.622Z,99513.66
2019-02-19T17:36:13.505Z,99517.80
2019-02-19T17:37:53.476Z,99514.23
2019-02-19T17:39:32.208Z,99516.46
2019-02-19T17:41:12.096Z,99515.96
2019-02-19T17:42:52.996Z,99512.55
2019-02-19T17:44:31.081Z,99505.52
2019-02-19T17:46:10.068Z,99512.06
2019-02-19T17:47:48.008Z,99521.98
2019-02-19T17:49:27.053Z,99515.24
2019-02-19T17:51:20.970Z,99515.11
2019-02-19T17:53:58.804Z,99508.61
2019-02-19T17:55:41.894Z,99512.55
2019-02-19T17:57:52.141Z,99508.37
2019-02-19T18:00:03.419Z,99515.44
2019-02-19T18:01:50.088Z,99513.27
2019-02-19T18:03:32.033Z,99508.56
2019-02-19T18:05:12.080Z,99516.83
2019-02-19T18:06:57.244Z,99514.53
2019-02-19T18:08:36.077Z,99516.65
2019-02-19T18:10:45.498Z,99516.65
2019-02-19T18:12:28.340Z,99524.27
2019-02-19T18:14:06.243Z,99520.50
2019-02-19T18:16:42.883Z,99527.25
2019-02-19T18:18:29.414Z,99529.08
2019-02-19T18:20:04.146Z,99530.95
2019-02-19T18:21:37.966Z,99534.47
2019-02-19T18:23:10.969Z,99525.61
2019-02-19T18:24:44.861Z,99526.33
2019-02-19T18:26:18.571Z,99529.08
2019-02-19T18:27:52.645Z,99530.61
2019-02-19T18:29:26.460Z,99534.23
2019-02-19T18:30:59.455Z,99524.50
2019-02-19T18:32:33.448Z,99523.68
2019-02-19T18:34:07.334Z,99519.98
2019-02-19T18:35:41.576Z,99525.80
2019-02-19T18:37:15.616Z,99530.91
2019-02-19T18:38:49.567Z,99526.85
2019-02-19T18:40:22.891Z,99524.66
2019-02-19T18:41:56.756Z,99524.50
2019-02-19T18:43:30.766Z,99525.38
2019-02-19T18:45:04.700Z,99530.19
2019-02-19T18:46:38.744Z,99528.89
2019-02-19T18:48:11.586Z,99529.89
2019-02-19T18:49:45.711Z,99537.89
2019-02-19T18:51:19.583Z,99533.98
2019-02-19T18:52:53.490Z,99532.39
2019-02-19T18:54:27.565Z,99533.74
2019-02-19T18:56:02.014Z,99534.17
2019-02-19T18:57:35.008Z,99541.30